Time;durP1;ratioP1;P1;durP2;ratioP2;P2;SDS_P1;SDS_P2;PMS_P1;PMS_P2;Temp;Humidity;BMP_temperature;BMP_pressure;BME280_temperature;BME280_humidity;BME280_pressure;Samples;Min_cycle;Max_cycle;Signal;HPM_P1;HPM_P2
2023/10/09 00:01:46;;;;;;;;;;;;;;;12.32;47.52;101322.84;4996658;27;99692;-55
2023/10/09 00:04:13;;;;;;;;;;;;;;;12.28;47.43;101307.13;5001850;27;99917;-55
2023/10/09 00:06:41;;;;;;;;;;;;;;;12.26;47.48;101313.84;4997572;27;99799;-56
2023/10/09 00:11:54;;;;;;;;;;;;;;;12.24;47.60;101283.56;4992579;27;98263;-62
2023/10/09 00:14:20;;;;;;;;;;;;;;;12.24;47.51;101289.78;4964004;27;98409;-62
2023/10/09 00:16:49;;;;;;;;;;;;;;;12.26;47.67;101294.94;4989589;27;98670;-56
2023/10/09 00:19:19;;;;;;;;;;;;;;;12.24;47.59;101306.00;4974965;27;98405;-56
2023/10/09 00:21:48;;;;;;;;;;;;;;;12.26;47.50;101305.75;4960608;27;98063;-56
2023/10/09 00:24:22;;;;;;;;;;;;;;;12.26;47.42;101293.06;4993791;27;99545;-56
2023/10/09 00:26:48;;;;;;;;;;;;;;;12.27;47.58;101288.47;4981753;27;99637;-56
2023/10/09 00:29:16;;;;;;;;;;;;;;;12.27;47.40;101289.28;4956209;27;98359;-62
2023/10/09 00:31:50;;;;;;;;;;;;;;;12.28;47.49;101279.28;4982854;27;98538;-55
2023/10/09 00:34:19;;;;;;;;;;;;;;;12.29;47.41;101268.19;4980960;27;98409;-56
2023/10/09 00:36:52;;;;;;;;;;;;;;;12.31;47.39;101276.06;4983816;27;99065;-62
2023/10/09 00:39:55;;;;;;;;;;;;;;;12.33;47.48;101273.09;4976247;27;99775;-62
2023/10/09 00:42:15;;;;;;;;;;;;;;;12.33;47.56;101257.69;4983385;27;98450;-62
2023/10/09 00:44:42;;;;;;;;;;;;;;;12.34;47.44;101236.88;4958030;27;99500;-62
2023/10/09 00:47:21;;;;;;;;;;;;;;;12.34;47.58;101262.03;4966607;27;99027;-62
2023/10/09 00:49:59;;;;;;;;;;;;;;;12.34;47.59;101277.41;4978821;27;99086;-55
2023/10/09 00:52:32;;;;;;;;;;;;;;;12.34;47.51;101305.28;5001294;27;98362;-56
2023/10/09 00:55:01;;;;;;;;;;;;;;;12.33;47.90;101325.28;4988993;27;99482;-56
2023/10/09 00:57:28;;;;;;;;;;;;;;;12.33;47.66;101305.53;4962859;27;100208;-61
2023/10/09 00:59:59;;;;;;;;;;;;;;;12.33;47.68;101298.22;4986387;27;98421;-62
2023/10/09 01:02:35;;;;;;;;;;;;;;;12.33;47.59;101297.41;4977003;27;98423;-55
2023/10/09 01:05:18;;;;;;;;;;;;;;;12.34;47.61;101293.63;4985313;27;100142;-55
2023/10/09 01:07:45;;;;;;;;;;;;;;;12.35;47.65;101301.50;4984553;27;98244;-56
2023/10/09 01:10:11;;;;;;;;;;;;;;;12.34;47.67;101286.38;4973562;27;102560;-56
2023/10/09 01:12:43;;;;;;;;;;;;;;;12.36;47.69;101281.50;4992408;27;98579;-56
2023/10/09 01:15:17;;;;;;;;;;;;;;;12.34;47.60;101269.31;4960699;27;98376;-55
2023/10/09 01:17:45;;;;;;;;;;;;;;;12.38;47.55;101278.53;4992553;27;100202;-56
2023/10/09 01:20:27;;;;;;;;;;;;;;;12.36;47.49;101272.59;4993812;27;98561;-60
2023/10/09 01:22:53;;;;;;;;;;;;;;;12.37;47.58;101260.69;4963749;27;98239;-62
2023/10/09 01:25:20;;;;;;;;;;;;;;;12.35;47.52;101250.13;4954916;27;98206;-62
2023/10/09 01:27:46;;;;;;;;;;;;;;;12.35;47.53;101228.50;4957633;27;98713;-56
2023/10/09 01:30:13;;;;;;;;;;;;;;;12.34;47.55;101235.00;4974454;27;123808;-56
2023/10/09 01:32:40;;;;;;;;;;;;;;;12.35;47.51;101225.00;4987249;27;98557;-56
2023/10/09 01:35:20;;;;;;;;;;;;;;;12.34;47.67;101212.53;4939856;27;98826;-61
2023/10/09 01:37:49;;;;;;;;;;;;;;;12.33;47.71;101206.31;4974199;27;98496;-61
2023/10/09 01:40:36;;;;;;;;;;;;;;;12.32;47.59;101185.78;4961055;27;101835;-55
2023/10/09 01:43:03;;;;;;;;;;;;;;;12.29;47.71;101179.00;4964039;27;99590;-55
2023/10/09 01:45:41;;;;;;;;;;;;;;;12.27;47.62;101167.63;4962593;27;98842;-56
2023/10/09 01:48:08;;;;;;;;;;;;;;;12.27;47.58;101174.94;4977857;27;99245;-62
2023/10/09 01:50:41;;;;;;;;;;;;;;;12.25;47.80;101175.19;4972487;27;98316;-61
2023/10/09 01:53:08;;;;;;;;;;;;;;;12.26;47.75;101159.78;4972376;27;98511;-62
2023/10/09 01:55:37;;;;;;;;;;;;;;;12.26;47.61;101151.66;4978089;27;116303;-55
2023/10/09 01:58:17;;;;;;;;;;;;;;;12.25;47.61;101128.41;4995917;27;99161;-55
2023/10/09 02:00:49;;;;;;;;;;;;;;;12.23;47.68;101123.28;4964938;27;98845;-55
2023/10/09 02:03:15;;;;;;;;;;;;;;;12.24;47.78;101134.91;4950808;27;99038;-62
2023/10/09 02:05:45;;;;;;;;;;;;;;;12.23;47.82;101142.22;4984490;27;98534;-61
2023/10/09 02:08:12;;;;;;;;;;;;;;;12.23;47.63;101136.81;4965073;27;99421;-55
2023/10/09 02:10:47;;;;;;;;;;;;;;;12.24;47.82;101121.41;4962358;27;99432;-62
2023/10/09 02:13:16;;;;;;;;;;;;;;;12.23;47.63;101096.25;4952926;27;98288;-56
2023/10/09 02:21:00;;;;;;;;;;;;;;;12.24;47.77;101081.66;4955012;27;98526;-55
2023/10/09 02:23:56;;;;;;;;;;;;;;;12.25;47.81;101085.19;4973313;27;99879;-56
2023/10/09 02:26:32;;;;;;;;;;;;;;;12.24;47.84;101080.84;4946174;27;99248;-62
2023/10/09 02:28:59;;;;;;;;;;;;;;;12.24;47.82;101065.44;4956062;27;98130;-56
2023/10/09 02:31:28;;;;;;;;;;;;;;;12.25;47.74;101053.53;4944921;28;98579;-55
2023/10/09 02:33:55;;;;;;;;;;;;;;;12.24;47.67;101043.00;4946708;27;98797;-55
2023/10/09 02:36:22;;;;;;;;;;;;;;;12.24;47.75;101045.72;4977676;27;99424;-62
2023/10/09 02:38:48;;;;;;;;;;;;;;;12.23;47.79;101044.91;4947180;27;130047;-61
2023/10/09 02:41:20;;;;;;;;;;;;;;;12.24;47.75;101038.41;4957159;27;98568;-62
2023/10/09 02:43:47;;;;;;;;;;;;;;;12.23;47.91;101023.28;4958858;27;98081;-56
2023/10/09 02:46:17;;;;;;;;;;;;;;;12.23;47.81;101009.78;4959818;28;98996;-56
2023/10/09 02:48:47;;;;;;;;;;;;;;;12.23;47.69;100990.03;4945299;27;99886;-62
2023/10/09 02:51:31;;;;;;;;;;;;;;;12.28;47.90;100981.94;4951608;28;98715;-55
2023/10/09 02:54:18;;;;;;;;;;;;;;;12.36;47.74;100958.97;4967988;27;99494;-61
2023/10/09 02:56:54;;;;;;;;;;;;;;;12.41;47.89;100951.69;4940764;27;100378;-62
2023/10/09 02:59:21;;;;;;;;;;;;;;;12.46;47.66;100953.59;4972359;27;98709;-55
2023/10/09 03:01:47;;;;;;;;;;;;;;;12.48;47.91;100948.72;4958162;27;98162;-55
2023/10/09 03:04:14;;;;;;;;;;;;;;;12.48;47.83;100943.31;4968217;27;99843;-55
2023/10/09 03:06:49;;;;;;;;;;;;;;;12.49;47.68;100931.41;4964063;27;99605;-56
2023/10/09 03:09:17;;;;;;;;;;;;;;;12.49;47.73;100912.50;4960462;27;98285;-55
2023/10/09 03:11:53;;;;;;;;;;;;;;;12.48;48.00;100908.97;4945260;27;102370;-55
2023/10/09 03:14:26;;;;;;;;;;;;;;;12.46;47.91;100894.94;4980136;27;98738;-62
2023/10/09 03:16:57;;;;;;;;;;;;;;;12.45;48.05;100904.09;4976843;27;118904;-62
2023/10/09 03:19:26;;;;;;;;;;;;;;;12.45;47.70;100911.41;4979308;27;99303;-62
2023/10/09 03:21:52;;;;;;;;;;;;;;;12.46;47.98;100908.44;4981002;27;99854;-62
2023/10/09 03:24:19;;;;;;;;;;;;;;;12.45;47.93;100916.81;4965565;27;98967;-62
2023/10/09 03:26:46;;;;;;;;;;;;;;;12.46;47.85;100940.09;4978674;27;98059;-56
2023/10/09 03:29:12;;;;;;;;;;;;;;;12.46;48.00;100972.53;4948940;27;125461;-62
2023/10/09 03:31:38;;;;;;;;;;;;;;;12.46;47.92;100991.47;4956503;27;101616;-62
2023/10/09 03:34:04;;;;;;;;;;;;;;;12.46;48.07;100989.56;4980467;27;98285;-56
2023/10/09 03:36:31;;;;;;;;;;;;;;;12.46;48.10;100983.34;4990555;27;98619;-55
2023/10/09 03:39:00;;;;;;;;;;;;;;;12.47;48.01;100985.78;4951232;27;98181;-56
2023/10/09 03:41:29;;;;;;;;;;;;;;;12.47;48.00;100971.44;4991319;27;122259;-62
2023/10/09 03:43:55;;;;;;;;;;;;;;;12.47;47.84;100974.97;4968257;27;100071;-56
2023/10/09 03:46:26;;;;;;;;;;;;;;;12.47;47.99;100977.66;5000390;27;116723;-56
2023/10/09 03:48:52;;;;;;;;;;;;;;;12.48;47.89;100967.66;4998690;27;98313;-62
2023/10/09 03:51:21;;;;;;;;;;;;;;;12.46;48.00;100951.72;4990395;27;100148;-62
2023/10/09 03:53:50;;;;;;;;;;;;;;;12.44;47.97;100945.75;4985405;27;98914;-56
2023/10/09 03:56:17;;;;;;;;;;;;;;;12.42;47.96;100936.31;4999678;27;100492;-62
2023/10/09 03:58:50;;;;;;;;;;;;;;;12.41;47.95;100935.47;4962859;27;98042;-62
2023/10/09 04:01:29;;;;;;;;;;;;;;;12.40;48.00;100933.03;4954355;27;99528;-62
2023/10/09 04:03:59;;;;;;;;;;;;;;;12.40;48.07;100924.94;4971234;27;98845;-56
2023/10/09 04:06:32;;;;;;;;;;;;;;;12.39;48.08;100921.41;4979662;27;98737;-56
2023/10/09 04:09:00;;;;;;;;;;;;;;;12.37;47.89;100903.84;4967259;27;99888;-61
2023/10/09 04:11:26;;;;;;;;;;;;;;;12.35;48.12;100901.41;4971163;27;99425;-61
2023/10/09 04:13:53;;;;;;;;;;;;;;;12.35;47.93;100900.59;4981704;27;98321;-55
2023/10/09 04:18:59;;;;;;;;;;;;;;;12.34;48.04;100882.72;4982595;27;98627;-61
2023/10/09 04:21:34;;;;;;;;;;;;;;;12.31;48.03;100869.78;4963145;27;98109;-61
2023/10/09 04:26:46;;;;;;;;;;;;;;;12.29;47.89;100857.31;4981073;27;98700;-62
2023/10/09 04:29:26;;;;;;;;;;;;;;;12.28;48.04;100839.50;5000138;27;99060;-55
2023/10/09 04:31:53;;;;;;;;;;;;;;;12.25;48.04;100814.88;5000614;27;99512;-55
2023/10/09 04:34:22;;;;;;;;;;;;;;;12.22;48.20;100821.66;4967125;27;98111;-61
2023/10/09 04:36:49;;;;;;;;;;;;;;;12.20;48.09;100814.91;5006520;27;99955;-61
2023/10/09 04:39:25;;;;;;;;;;;;;;;12.19;48.03;100822.19;5002155;27;98507;-61
2023/10/09 04:41:52;;;;;;;;;;;;;;;12.17;48.19;100808.13;4990667;27;99439;-55
2023/10/09 04:44:18;;;;;;;;;;;;;;;12.18;48.10;100817.03;4981361;27;99816;-61
2023/10/09 04:52:19;;;;;;;;;;;;;;;12.15;48.29;100788.69;4990504;27;98253;-55
2023/10/09 04:57:37;;;;;;;;;;;;;;;12.14;48.09;100786.22;5004167;27;98460;-61
2023/10/09 05:00:06;;;;;;;;;;;;;;;12.12;48.28;100775.72;4958832;27;99969;-61
2023/10/09 05:02:36;;;;;;;;;;;;;;;12.09;48.28;100775.44;4974602;27;99627;-55
2023/10/09 05:05:16;;;;;;;;;;;;;;;12.06;48.30;100757.84;4993680;27;99239;-55
2023/10/09 05:07:57;;;;;;;;;;;;;;;12.03;48.32;100742.22;5006223;27;98051;-55
2023/10/09 05:10:25;;;;;;;;;;;;;;;12.00;48.10;100738.16;4979941;27;98810;-55
2023/10/09 05:12:58;;;;;;;;;;;;;;;11.99;48.32;100746.53;4978477;27;98527;-55
2023/10/09 05:15:29;;;;;;;;;;;;;;;11.97;48.38;100735.97;5006544;27;98532;-55
2023/10/09 05:18:02;;;;;;;;;;;;;;;11.96;48.35;100733.56;4992771;27;99440;-61
2023/10/09 05:23:23;;;;;;;;;;;;;;;11.92;48.68;100724.38;4989185;27;99409;-55
2023/10/09 05:25:53;;;;;;;;;;;;;;;11.92;48.87;100732.47;5002289;27;98564;-61
2023/10/09 05:28:30;;;;;;;;;;;;;;;11.93;48.59;100728.69;4992187;27;99148;-61
2023/10/09 05:31:09;;;;;;;;;;;;;;;11.92;48.43;100735.97;4989760;27;98328;-55
2023/10/09 05:33:36;;;;;;;;;;;;;;;11.94;48.10;100741.91;4978589;27;98445;-61
2023/10/09 05:38:58;;;;;;;;;;;;;;;11.96;48.48;100737.06;4990774;27;98241;-61
2023/10/09 05:41:46;;;;;;;;;;;;;;;11.99;48.22;100743.84;4990925;27;98228;-55
2023/10/09 05:47:31;;;;;;;;;;;;;;;12.04;48.32;100733.00;4993929;27;98134;-62
2023/10/09 06:08:26;;;;;;;;;;;;;;;12.36;48.18;100729.22;4977230;27;98637;-62
2023/10/09 06:13:37;;;;;;;;;;;;;;;12.41;48.07;100746.22;4972956;27;102254;-62
2023/10/09 06:16:29;;;;;;;;;;;;;;;12.43;48.32;100757.59;4975162;27;128313;-62
2023/10/09 06:19:07;;;;;;;;;;;;;;;12.44;48.02;100759.19;4984474;27;99126;-62
2023/10/09 06:24:23;;;;;;;;;;;;;;;12.43;48.23;100779.22;4997422;27;100033;-62
2023/10/09 06:27:14;;;;;;;;;;;;;;;12.44;48.37;100767.31;4996539;27;98972;-55
2023/10/09 06:35:15;;;;;;;;;;;;;;;12.49;48.34;100774.59;4968826;27;98918;-62
2023/10/09 06:38:40;;;;;;;;;;;;;;;12.50;48.25;100785.16;4992221;27;100088;-61
2023/10/09 06:43:17;;;;;;;;;;;;;;;12.50;48.25;100797.88;4978900;27;98130;-62
2023/10/09 06:45:46;;;;;;;;;;;;;;;12.50;48.55;100812.19;4962239;27;98034;-56
2023/10/09 06:58:57;;;;;;;;;;;;;;;12.51;48.41;100813.00;4992908;27;98436;-62
2023/10/09 07:07:13;;;;;;;;;;;;;;;12.56;48.51;100829.22;4973405;27;98349;-56
2023/10/09 07:12:27;;;;;;;;;;;;;;;12.60;48.44;100824.06;4992337;27;98340;-55
2023/10/09 07:17:21;;;;;;;;;;;;;;;12.64;48.45;100817.03;4995400;27;98162;-55
2023/10/09 07:24:53;;;;;;;;;;;;;;;12.68;48.18;100824.34;4976647;27;98568;-61
2023/10/09 07:27:43;;;;;;;;;;;;;;;12.70;48.49;100824.88;4975828;28;101970;-61
2023/10/09 07:30:35;;;;;;;;;;;;;;;12.73;48.47;100818.09;4992805;27;98736;-61
2023/10/09 07:38:19;;;;;;;;;;;;;;;12.73;48.47;100826.22;4963217;27;98857;-62
2023/10/09 07:40:55;;;;;;;;;;;;;;;12.74;48.31;100835.97;4993560;27;98299;-61
2023/10/09 07:43:26;;;;;;;;;;;;;;;12.73;48.38;100831.63;4993357;27;99381;-55
2023/10/09 07:48:25;;;;;;;;;;;;;;;12.74;48.25;100831.38;4995191;27;98185;-55
2023/10/09 07:50:57;;;;;;;;;;;;;;;12.73;48.30;100828.91;4983389;27;100475;-61
2023/10/09 07:53:26;;;;;;;;;;;;;;;12.71;48.41;100836.50;4983791;27;100987;-61
2023/10/09 07:55:58;;;;;;;;;;;;;;;12.70;48.65;100843.81;4963498;27;98248;-55
2023/10/09 07:58:25;;;;;;;;;;;;;;;12.70;48.42;100843.00;4974399;28;97856;-55
2023/10/09 08:01:07;;;;;;;;;;;;;;;12.71;48.42;100836.50;4994238;27;99358;-55
2023/10/09 08:03:36;;;;;;;;;;;;;;;12.73;48.31;100835.16;4993997;27;98177;-55
2023/10/09 08:11:59;;;;;;;;;;;;;;;12.78;48.34;100831.63;4979294;27;98410;-61
2023/10/09 08:17:17;;;;;;;;;;;;;;;12.84;48.32;100843.25;4981103;27;98790;-55
2023/10/09 08:19:56;;;;;;;;;;;;;;;12.85;48.16;100845.69;4963680;27;98174;-55
2023/10/09 08:24:58;;;;;;;;;;;;;;;12.87;48.32;100846.22;4971154;27;99207;-61
2023/10/09 08:35:47;;;;;;;;;;;;;;;13.11;47.91;100826.69;4964036;27;98269;-55
2023/10/09 08:38:13;;;;;;;;;;;;;;;13.22;48.14;100823.66;4965033;27;99602;-56
2023/10/09 08:40:40;;;;;;;;;;;;;;;13.30;47.91;100825.03;4968862;27;97991;-55
2023/10/09 08:43:10;;;;;;;;;;;;;;;13.33;47.84;100831.81;4969391;27;98818;-62
2023/10/09 08:45:39;;;;;;;;;;;;;;;13.27;48.15;100833.69;5000079;27;98096;-61
2023/10/09 08:48:06;;;;;;;;;;;;;;;13.29;47.97;100842.38;4960797;27;99127;-61
2023/10/09 08:50:34;;;;;;;;;;;;;;;13.26;48.02;100842.91;4983828;27;98203;-61
2023/10/09 08:53:01;;;;;;;;;;;;;;;13.23;48.04;100849.69;4966090;27;98184;-55
2023/10/09 08:55:27;;;;;;;;;;;;;;;13.24;48.20;100848.63;4957314;28;98493;-57
2023/10/09 08:57:53;;;;;;;;;;;;;;;13.23;48.21;100846.97;4984370;27;98606;-55
2023/10/09 09:00:25;;;;;;;;;;;;;;;13.22;48.10;100849.94;4985122;27;98660;-55
2023/10/09 09:02:54;;;;;;;;;;;;;;;13.18;48.27;100854.28;4982677;27;98172;-61
2023/10/09 09:05:21;;;;;;;;;;;;;;;13.18;48.11;100849.66;4983968;27;98923;-55
2023/10/09 09:07:48;;;;;;;;;;;;;;;13.21;48.35;100859.16;4980162;27;98360;-61
2023/10/09 09:10:31;;;;;;;;;;;;;;;13.22;48.33;100855.34;4940157;28;98265;-61
2023/10/09 09:13:03;;;;;;;;;;;;;;;13.22;48.22;100858.06;4967762;27;98333;-55
2023/10/09 09:15:29;;;;;;;;;;;;;;;13.19;48.36;100867.53;4979686;27;98472;-55
2023/10/09 09:18:11;;;;;;;;;;;;;;;13.18;48.34;100865.91;4959452;27;98796;-55
2023/10/09 09:20:40;;;;;;;;;;;;;;;13.24;48.34;100858.59;4997518;27;98357;-55
2023/10/09 09:23:09;;;;;;;;;;;;;;;13.32;48.19;100849.91;4965734;27;98888;-56
2023/10/09 09:25:59;;;;;;;;;;;;;;;13.40;48.22;100843.94;4984490;27;98579;-55
2023/10/09 09:28:26;;;;;;;;;;;;;;;13.48;48.15;100837.16;4984231;27;98270;-61
2023/10/09 09:31:02;;;;;;;;;;;;;;;13.49;48.09;100827.94;4959465;27;99369;-61
2023/10/09 09:33:42;;;;;;;;;;;;;;;13.55;48.26;100831.41;4965336;27;99524;-55
2023/10/09 09:36:11;;;;;;;;;;;;;;;13.57;48.33;100832.78;4979905;27;98605;-61
2023/10/09 09:38:50;;;;;;;;;;;;;;;13.56;48.35;100822.19;4979369;27;98345;-61
2023/10/09 09:41:26;;;;;;;;;;;;;;;13.61;47.88;100827.59;4965690;27;99468;-56
2023/10/09 09:43:56;;;;;;;;;;;;;;;13.62;48.05;100827.31;4976446;27;97997;-61
2023/10/09 09:46:36;;;;;;;;;;;;;;;13.67;47.97;100827.28;4980877;27;97985;-55
2023/10/09 09:49:05;;;;;;;;;;;;;;;13.78;48.06;100825.34;4942557;27;100438;-56
2023/10/09 09:51:32;;;;;;;;;;;;;;;13.79;47.81;100828.84;4974905;27;100774;-55
2023/10/09 09:53:58;;;;;;;;;;;;;;;13.78;48.04;100824.53;4995541;27;116403;-61
2023/10/09 09:56:27;;;;;;;;;;;;;;;13.78;48.07;100835.38;4994199;27;98046;-61
2023/10/09 09:58:53;;;;;;;;;;;;;;;13.70;48.38;100837.56;4992370;27;98478;-55
2023/10/09 10:01:24;;;;;;;;;;;;;;;13.65;48.24;100842.22;4997928;27;98421;-62
2023/10/09 10:04:12;;;;;;;;;;;;;;;13.63;48.17;100847.88;4979048;27;99355;-56
2023/10/09 10:06:39;;;;;;;;;;;;;;;13.62;48.11;100837.34;4944828;27;99730;-56
2023/10/09 10:09:07;;;;;;;;;;;;;;;13.61;48.51;100844.66;4966712;27;98489;-62
2023/10/09 10:11:46;;;;;;;;;;;;;;;13.60;48.51;100847.66;4964154;27;99812;-57
2023/10/09 10:14:21;;;;;;;;;;;;;;;13.60;48.50;100851.19;4991822;27;98195;-62
2023/10/09 10:17:06;;;;;;;;;;;;;;;13.61;48.22;100855.50;4965537;27;98228;-56
2023/10/09 10:20:00;;;;;;;;;;;;;;;13.62;48.25;100849.00;4996184;27;99248;-62
2023/10/09 10:22:30;;;;;;;;;;;;;;;13.64;48.13;100840.59;4991238;27;98917;-61
2023/10/09 10:25:02;;;;;;;;;;;;;;;13.64;48.23;100833.28;4962814;27;98458;-62
2023/10/09 10:27:28;;;;;;;;;;;;;;;13.69;48.08;100819.69;4995304;27;98339;-62
2023/10/09 10:30:13;;;;;;;;;;;;;;;13.77;48.17;100833.75;4977479;27;100146;-62
2023/10/09 10:32:58;;;;;;;;;;;;;;;13.75;48.03;100836.72;4983202;27;98494;-62
2023/10/09 10:35:39;;;;;;;;;;;;;;;13.73;48.33;100834.31;4980719;27;98279;-56
2023/10/09 10:38:34;;;;;;;;;;;;;;;13.71;48.16;100836.47;4968392;28;98981;-56
2023/10/09 10:41:16;;;;;;;;;;;;;;;13.70;48.37;100837.56;4962142;27;98328;-62
2023/10/09 10:43:48;;;;;;;;;;;;;;;13.72;48.08;100827.28;4995678;27;99623;-56
2023/10/09 10:46:15;;;;;;;;;;;;;;;13.72;48.29;100837.31;4982151;27;97955;-56
2023/10/09 10:48:46;;;;;;;;;;;;;;;13.70;48.23;100834.84;4965951;27;98317;-62
2023/10/09 10:51:15;;;;;;;;;;;;;;;13.68;48.33;100833.53;4977302;27;98198;-56
2023/10/09 10:53:59;;;;;;;;;;;;;;;13.68;48.38;100834.34;4982360;27;98943;-62
2023/10/09 10:56:35;;;;;;;;;;;;;;;13.71;48.23;100828.34;4977947;27;98093;-56
2023/10/09 11:01:52;;;;;;;;;;;;;;;13.82;48.09;100831.81;4987325;27;98464;-62
2023/10/09 11:12:38;;;;;;;;;;;;;;;13.87;48.34;100829.09;4991456;27;98502;-56
2023/10/09 11:18:06;;;;;;;;;;;;;;;13.87;48.05;100828.25;4991632;27;99452;-62
2023/10/09 11:20:34;;;;;;;;;;;;;;;13.85;48.46;100831.25;4994704;27;98319;-62
2023/10/09 11:25:49;;;;;;;;;;;;;;;13.82;48.56;100829.09;4982496;27;99038;-62
2023/10/09 11:28:29;;;;;;;;;;;;;;;13.88;48.06;100825.28;4965700;27;98153;-62
2023/10/09 11:31:05;;;;;;;;;;;;;;;14.00;48.39;100814.09;4980883;27;98503;-56
2023/10/09 11:33:45;;;;;;;;;;;;;;;14.06;48.23;100812.97;4981345;27;99068;-56
2023/10/09 11:36:11;;;;;;;;;;;;;;;14.15;47.89;100808.56;4958071;28;98074;-56
2023/10/09 11:38:38;;;;;;;;;;;;;;;14.22;48.21;100813.66;4953374;27;102770;-62
2023/10/09 11:41:19;;;;;;;;;;;;;;;14.20;48.24;100816.66;4954683;27;98802;-62
2023/10/09 11:43:52;;;;;;;;;;;;;;;14.15;48.06;100816.69;4970989;27;98314;-62
2023/10/09 11:46:48;;;;;;;;;;;;;;;14.12;48.02;100819.16;4965160;27;98204;-62
2023/10/09 11:49:25;;;;;;;;;;;;;;;14.06;48.04;100815.66;4983078;27;98391;-62
2023/10/09 11:54:36;;;;;;;;;;;;;;;13.98;48.18;100822.50;4992964;27;98170;-56
2023/10/09 11:57:02;;;;;;;;;;;;;;;14.00;48.10;100827.66;4960174;27;99481;-62
2023/10/09 11:59:34;;;;;;;;;;;;;;;14.03;48.17;100816.25;4981033;27;97988;-56
2023/10/09 12:02:01;;;;;;;;;;;;;;;13.98;48.40;100819.78;4991846;27;98236;-62
2023/10/09 12:04:30;;;;;;;;;;;;;;;13.98;48.45;100817.06;4972515;27;99759;-56
2023/10/09 12:07:06;;;;;;;;;;;;;;;13.99;48.19;100817.91;4998025;27;99572;-56
2023/10/09 12:09:34;;;;;;;;;;;;;;;13.98;48.39;100811.66;4986622;27;99887;-56
2023/10/09 12:12:02;;;;;;;;;;;;;;;13.96;48.47;100819.28;4975460;27;98495;-56
2023/10/09 12:14:33;;;;;;;;;;;;;;;13.96;48.41;100808.44;4976921;27;101873;-56
2023/10/09 12:17:05;;;;;;;;;;;;;;;13.98;48.33;100805.44;4979330;27;98832;-56
2023/10/09 12:19:37;;;;;;;;;;;;;;;13.99;48.58;100809.78;4964620;27;98175;-56
2023/10/09 12:22:05;;;;;;;;;;;;;;;14.03;48.12;100807.28;4992102;27;116266;-56
2023/10/09 12:24:33;;;;;;;;;;;;;;;14.11;48.35;100799.38;4983326;27;98263;-56
2023/10/09 12:26:59;;;;;;;;;;;;;;;14.14;48.13;100804.22;4982074;27;98005;-56
2023/10/09 12:29:29;;;;;;;;;;;;;;;14.17;48.18;100798.25;4997715;27;98582;-62
2023/10/09 12:31:59;;;;;;;;;;;;;;;14.13;48.12;100808.03;4971306;27;98245;-62
2023/10/09 12:34:28;;;;;;;;;;;;;;;14.05;48.08;100807.84;4998404;27;98288;-61
2023/10/09 12:36:54;;;;;;;;;;;;;;;14.00;48.16;100808.69;4959255;27;98580;-62
2023/10/09 12:39:21;;;;;;;;;;;;;;;14.01;48.52;100804.88;4991162;27;98209;-62
2023/10/09 12:41:48;;;;;;;;;;;;;;;14.05;48.50;100789.66;4978651;27;98138;-56
2023/10/09 12:44:19;;;;;;;;;;;;;;;14.10;48.18;100792.31;4982631;27;98413;-60
2023/10/09 12:46:54;;;;;;;;;;;;;;;14.14;48.48;100785.25;4970290;27;98886;-62
2023/10/09 12:49:24;;;;;;;;;;;;;;;14.16;48.33;100791.22;4979993;27;98235;-56
2023/10/09 12:51:52;;;;;;;;;;;;;;;14.15;48.54;100783.38;4966287;27;98138;-61
2023/10/09 12:54:20;;;;;;;;;;;;;;;14.16;48.10;100785.78;4963678;27;98275;-55
2023/10/09 12:56:48;;;;;;;;;;;;;;;14.17;48.11;100790.09;4959459;27;99442;-55
2023/10/09 12:59:14;;;;;;;;;;;;;;;14.16;48.25;100782.28;4964459;27;99503;-61
2023/10/09 13:01:43;;;;;;;;;;;;;;;14.16;48.12;100769.53;4948227;27;98169;-61
2023/10/09 13:04:15;;;;;;;;;;;;;;;14.15;48.17;100776.03;4967983;27;99842;-55
2023/10/09 13:06:45;;;;;;;;;;;;;;;14.12;48.55;100775.78;4949500;27;98991;-61
2023/10/09 13:09:15;;;;;;;;;;;;;;;14.08;48.20;100780.16;4981566;27;99063;-61
2023/10/09 13:11:42;;;;;;;;;;;;;;;14.03;48.34;100777.47;4952376;27;97917;-55
2023/10/09 13:14:16;;;;;;;;;;;;;;;13.99;48.54;100778.06;4981795;27;98435;-55
2023/10/09 13:16:43;;;;;;;;;;;;;;;13.99;48.71;100777.25;4972306;27;98323;-55
2023/10/09 13:19:09;;;;;;;;;;;;;;;13.97;48.49;100780.22;4994949;27;98124;-61
2023/10/09 13:21:37;;;;;;;;;;;;;;;13.98;48.61;100784.56;4978864;27;98315;-61
2023/10/09 13:24:03;;;;;;;;;;;;;;;13.98;48.52;100783.75;4951150;28;100267;-61
2023/10/09 13:26:29;;;;;;;;;;;;;;;13.97;48.33;100790.25;4956819;27;99007;-61
2023/10/09 13:29:01;;;;;;;;;;;;;;;13.97;48.67;100780.22;4976969;27;109724;-61
2023/10/09 13:31:31;;;;;;;;;;;;;;;13.97;48.38;100782.94;4958059;28;98409;-55
2023/10/09 13:33:59;;;;;;;;;;;;;;;13.97;48.56;100780.22;4975456;27;99829;-61
2023/10/09 13:36:31;;;;;;;;;;;;;;;13.96;48.41;100769.69;4961127;28;99545;-61
2023/10/09 13:39:24;;;;;;;;;;;;;;;13.93;48.42;100784.59;4959919;27;98570;-61
2023/10/09 13:41:58;;;;;;;;;;;;;;;13.88;48.72;100787.34;4975003;27;98568;-61
2023/10/09 13:44:27;;;;;;;;;;;;;;;13.82;48.66;100785.75;4961969;27;98194;-61
2023/10/09 13:46:57;;;;;;;;;;;;;;;13.79;48.62;100793.63;4959524;27;105889;-61
2023/10/09 13:49:24;;;;;;;;;;;;;;;13.74;48.86;100791.75;4960155;27;98376;-61
2023/10/09 13:51:50;;;;;;;;;;;;;;;13.71;49.06;100790.41;4992077;27;98207;-61
2023/10/09 13:54:21;;;;;;;;;;;;;;;13.69;48.63;100787.19;4953798;27;122410;-61
2023/10/09 13:56:52;;;;;;;;;;;;;;;13.69;48.84;100792.63;4972197;27;99238;-61
2023/10/09 13:59:25;;;;;;;;;;;;;;;13.71;48.94;100795.84;4982713;27;98336;-55
2023/10/09 14:01:54;;;;;;;;;;;;;;;13.73;48.60;100790.16;4972611;27;98543;-55
2023/10/09 14:04:22;;;;;;;;;;;;;;;13.76;48.55;100795.03;4972179;27;98302;-56
2023/10/09 14:06:58;;;;;;;;;;;;;;;13.81;48.47;100786.03;4971369;27;98930;-56
2023/10/09 14:09:54;;;;;;;;;;;;;;;13.88;48.82;100795.47;4951374;27;99068;-56
2023/10/09 14:12:21;;;;;;;;;;;;;;;13.97;48.62;100785.66;4987712;27;98760;-55
2023/10/09 14:14:48;;;;;;;;;;;;;;;13.99;48.71;100788.09;4980032;27;99692;-55
2023/10/09 14:17:23;;;;;;;;;;;;;;;14.01;48.57;100783.19;4981171;27;98186;-61
2023/10/09 14:19:50;;;;;;;;;;;;;;;14.04;48.72;100789.97;4947300;27;99497;-55
2023/10/09 14:22:21;;;;;;;;;;;;;;;14.06;48.70;100788.56;4962556;27;98257;-61
2023/10/09 14:24:48;;;;;;;;;;;;;;;14.12;48.67;100790.16;4955682;27;98488;-55
2023/10/09 14:27:17;;;;;;;;;;;;;;;14.17;48.62;100795.53;4961040;27;98679;-60
2023/10/09 14:29:47;;;;;;;;;;;;;;;14.18;48.31;100789.00;4960381;27;99859;-60
2023/10/09 14:32:13;;;;;;;;;;;;;;;14.20;48.80;100794.16;4991692;27;98240;-54
2023/10/09 14:34:54;;;;;;;;;;;;;;;14.20;48.54;100802.28;4961213;27;98495;-60
2023/10/09 14:37:20;;;;;;;;;;;;;;;14.19;48.98;100801.50;4948007;27;99411;-60
2023/10/09 14:39:48;;;;;;;;;;;;;;;14.18;48.90;100801.75;4974058;27;98302;-54
2023/10/09 14:42:17;;;;;;;;;;;;;;;14.14;48.58;100806.94;4964697;27;98242;-61
2023/10/09 14:44:46;;;;;;;;;;;;;;;14.13;48.84;100812.66;4986512;27;98301;-55
2023/10/09 14:47:14;;;;;;;;;;;;;;;14.11;49.07;100812.94;4991449;27;99212;-61
2023/10/09 14:49:46;;;;;;;;;;;;;;;14.09;49.09;100809.69;4975252;27;98031;-61
2023/10/09 14:52:16;;;;;;;;;;;;;;;14.04;48.72;100809.72;4955831;27;98583;-61
2023/10/09 14:54:44;;;;;;;;;;;;;;;14.01;48.87;100807.59;4967784;27;99199;-61
2023/10/09 14:57:11;;;;;;;;;;;;;;;13.99;48.78;100817.91;4975507;27;98052;-55
2023/10/09 14:59:38;;;;;;;;;;;;;;;13.94;49.10;100807.88;4976946;27;98964;-59
2023/10/09 15:02:07;;;;;;;;;;;;;;;13.92;49.28;100812.00;4971122;27;115923;-61
2023/10/09 15:04:36;;;;;;;;;;;;;;;13.89;49.01;100809.84;4972170;27;98750;-61
2023/10/09 15:07:06;;;;;;;;;;;;;;;13.87;48.92;100812.00;4978698;27;98959;-61
2023/10/09 15:09:36;;;;;;;;;;;;;;;13.83;49.09;100811.75;4990667;27;99108;-55
2023/10/09 15:12:02;;;;;;;;;;;;;;;13.81;49.15;100808.53;4988641;27;98458;-55
2023/10/09 15:14:29;;;;;;;;;;;;;;;13.79;49.24;100818.81;4982017;27;98348;-55